Terminal Aerodrome Forecast
Issued by NWS Wilmington, OH

Home | Current Version | Previous Version | Text Only | Print | Product List | Glossary On
Versions: 1 2 3 4 5 6 7 8 9 10 11 12 13 14 15 16 17 18
000
FTUS41 KILN 221836 AAB
TAFILN
TAF AMD
KILN 221836Z 2219/2318 26012G18KT P6SM VCSH BKN050
     FM222100 28012KT P6SM BKN045
     FM230200 31005KT P6SM SCT150
     FM231500 30008KT P6SM SCT050=

USA.gov is the U.S. government's official web portal to all federal, state and local government web resources and services.